sensor_id;sensor_type;location;lat;lon;timestamp;temperature;humidity
8953;DHT22;4511;50.890;8.054;2023-03-23T00:00:22;10.90;99.90
8953;DHT22;4511;50.890;8.054;2023-03-23T00:02:49;10.90;99.90
8953;DHT22;4511;50.890;8.054;2023-03-23T00:05:16;10.90;99.90
8953;DHT22;4511;50.890;8.054;2023-03-23T00:07:44;10.90;99.90
8953;DHT22;4511;50.890;8.054;2023-03-23T00:10:11;10.90;99.90
8953;DHT22;4511;50.890;8.054;2023-03-23T00:12:38;10.90;99.90
8953;DHT22;4511;50.890;8.054;2023-03-23T00:15:08;10.90;99.90
8953;DHT22;4511;50.890;8.054;2023-03-23T00:17:38;10.80;99.90
8953;DHT22;4511;50.890;8.054;2023-03-23T00:20:06;10.80;99.90
8953;DHT22;4511;50.890;8.054;2023-03-23T00:22:35;10.80;99.90
8953;DHT22;4511;50.890;8.054;2023-03-23T00:25:05;10.70;99.90
8953;DHT22;4511;50.890;8.054;2023-03-23T00:27:34;10.70;99.90
8953;DHT22;4511;50.890;8.054;2023-03-23T00:30:01;10.70;99.90
8953;DHT22;4511;50.890;8.054;2023-03-23T00:32:28;10.70;99.90
8953;DHT22;4511;50.890;8.054;2023-03-23T00:34:55;10.70;99.90
8953;DHT22;4511;50.890;8.054;2023-03-23T00:37:24;10.70;99.90
8953;DHT22;4511;50.890;8.054;2023-03-23T00:39:51;10.70;99.90
8953;DHT22;4511;50.890;8.054;2023-03-23T00:42:24;10.60;99.90
8953;DHT22;4511;50.890;8.054;2023-03-23T00:44:51;10.70;99.90
8953;DHT22;4511;50.890;8.054;2023-03-23T00:47:26;10.70;99.90
8953;DHT22;4511;50.890;8.054;2023-03-23T00:49:53;10.70;99.90
8953;DHT22;4511;50.890;8.054;2023-03-23T00:52:22;10.70;99.90
8953;DHT22;4511;50.890;8.054;2023-03-23T00:54:48;10.60;99.90
8953;DHT22;4511;50.890;8.054;2023-03-23T00:57:16;10.70;99.90
8953;DHT22;4511;50.890;8.054;2023-03-23T00:59:44;10.70;99.90
8953;DHT22;4511;50.890;8.054;2023-03-23T01:02:11;10.70;99.90
8953;DHT22;4511;50.890;8.054;2023-03-23T01:04:38;10.60;99.90
8953;DHT22;4511;50.890;8.054;2023-03-23T01:07:05;10.70;99.90
8953;DHT22;4511;50.890;8.054;2023-03-23T01:09:33;10.70;99.90
8953;DHT22;4511;50.890;8.054;2023-03-23T01:12:01;10.70;99.90
8953;DHT22;4511;50.890;8.054;2023-03-23T01:14:28;10.60;99.90
8953;DHT22;4511;50.890;8.054;2023-03-23T01:16:56;10.60;99.90
8953;DHT22;4511;50.890;8.054;2023-03-23T01:19:23;10.60;99.90
8953;DHT22;4511;50.890;8.054;2023-03-23T01:21:50;10.50;99.90
8953;DHT22;4511;50.890;8.054;2023-03-23T01:24:16;10.50;99.90
8953;DHT22;4511;50.890;8.054;2023-03-23T01:26:43;10.50;99.90
8953;DHT22;4511;50.890;8.054;2023-03-23T01:29:10;10.60;99.90
8953;DHT22;4511;50.890;8.054;2023-03-23T01:31:37;10.60;99.90
8953;DHT22;4511;50.890;8.054;2023-03-23T01:34:05;10.50;99.90
8953;DHT22;4511;50.890;8.054;2023-03-23T01:36:32;10.60;99.90
8953;DHT22;4511;50.890;8.054;2023-03-23T01:39:00;10.50;99.90
8953;DHT22;4511;50.890;8.054;2023-03-23T01:41:29;10.60;99.90
8953;DHT22;4511;50.890;8.054;2023-03-23T01:43:58;10.60;99.90
8953;DHT22;4511;50.890;8.054;2023-03-23T01:46:27;10.60;99.90
8953;DHT22;4511;50.890;8.054;2023-03-23T01:48:56;10.60;99.90
8953;DHT22;4511;50.890;8.054;2023-03-23T01:51:26;10.50;99.90
8953;DHT22;4511;50.890;8.054;2023-03-23T01:53:55;10.50;99.90
8953;DHT22;4511;50.890;8.054;2023-03-23T01:56:25;10.40;99.90
8953;DHT22;4511;50.890;8.054;2023-03-23T01:58:55;10.40;99.90
8953;DHT22;4511;50.890;8.054;2023-03-23T02:01:23;10.40;99.90
8953;DHT22;4511;50.890;8.054;2023-03-23T02:03:56;10.40;99.90
8953;DHT22;4511;50.890;8.054;2023-03-23T02:06:24;10.40;99.90
8953;DHT22;4511;50.890;8.054;2023-03-23T02:08:52;10.30;99.90
8953;DHT22;4511;50.890;8.054;2023-03-23T02:11:20;10.30;99.90
8953;DHT22;4511;50.890;8.054;2023-03-23T02:13:48;10.30;99.90
8953;DHT22;4511;50.890;8.054;2023-03-23T02:16:21;10.20;99.90
8953;DHT22;4511;50.890;8.054;2023-03-23T02:18:58;10.20;99.90
8953;DHT22;4511;50.890;8.054;2023-03-23T02:21:57;10.20;99.90
8953;DHT22;4511;50.890;8.054;2023-03-23T02:24:54;10.20;99.90
8953;DHT22;4511;50.890;8.054;2023-03-23T02:27:43;10.10;99.90
8953;DHT22;4511;50.890;8.054;2023-03-23T02:30:31;10.20;99.90
8953;DHT22;4511;50.890;8.054;2023-03-23T02:36:03;10.10;99.90
8953;DHT22;4511;50.890;8.054;2023-03-23T02:38:34;10.10;99.90
8953;DHT22;4511;50.890;8.054;2023-03-23T02:41:03;10.10;99.90
8953;DHT22;4511;50.890;8.054;2023-03-23T02:43:34;10.10;99.90
8953;DHT22;4511;50.890;8.054;2023-03-23T02:46:06;10.10;99.90
8953;DHT22;4511;50.890;8.054;2023-03-23T02:48:37;10.10;99.90
8953;DHT22;4511;50.890;8.054;2023-03-23T02:51:06;10.10;99.90
8953;DHT22;4511;50.890;8.054;2023-03-23T02:53:36;10.00;99.90
8953;DHT22;4511;50.890;8.054;2023-03-23T02:56:04;10.00;99.90
8953;DHT22;4511;50.890;8.054;2023-03-23T02:58:33;10.00;99.90
8953;DHT22;4511;50.890;8.054;2023-03-23T03:01:14;10.00;99.90
8953;DHT22;4511;50.890;8.054;2023-03-23T03:03:43;10.00;99.90
8953;DHT22;4511;50.890;8.054;2023-03-23T03:06:15;9.90;99.90
8953;DHT22;4511;50.890;8.054;2023-03-23T03:08:47;9.90;99.90
8953;DHT22;4511;50.890;8.054;2023-03-23T03:11:17;10.00;99.90
8953;DHT22;4511;50.890;8.054;2023-03-23T03:13:51;10.00;99.90
8953;DHT22;4511;50.890;8.054;2023-03-23T03:16:24;10.00;99.90
8953;DHT22;4511;50.890;8.054;2023-03-23T03:18:58;9.90;99.90
8953;DHT22;4511;50.890;8.054;2023-03-23T03:21:28;9.90;99.90
8953;DHT22;4511;50.890;8.054;2023-03-23T03:23:57;9.90;99.90
8953;DHT22;4511;50.890;8.054;2023-03-23T03:26:27;9.90;99.90
8953;DHT22;4511;50.890;8.054;2023-03-23T03:28:55;9.90;99.90
8953;DHT22;4511;50.890;8.054;2023-03-23T03:31:25;9.90;99.90
8953;DHT22;4511;50.890;8.054;2023-03-23T03:33:53;10.00;99.90
8953;DHT22;4511;50.890;8.054;2023-03-23T03:36:26;10.00;99.90
8953;DHT22;4511;50.890;8.054;2023-03-23T03:38:53;10.00;99.90
8953;DHT22;4511;50.890;8.054;2023-03-23T03:41:22;10.00;99.90
8953;DHT22;4511;50.890;8.054;2023-03-23T03:43:49;9.90;99.90
8953;DHT22;4511;50.890;8.054;2023-03-23T03:46:16;9.90;99.90
8953;DHT22;4511;50.890;8.054;2023-03-23T03:48:43;9.90;99.90
8953;DHT22;4511;50.890;8.054;2023-03-23T03:51:09;9.90;99.90
8953;DHT22;4511;50.890;8.054;2023-03-23T03:53:38;9.90;99.90
8953;DHT22;4511;50.890;8.054;2023-03-23T03:56:06;9.90;99.90
8953;DHT22;4511;50.890;8.054;2023-03-23T03:58:32;9.90;99.90
8953;DHT22;4511;50.890;8.054;2023-03-23T04:01:02;9.90;99.90
8953;DHT22;4511;50.890;8.054;2023-03-23T04:03:28;9.90;99.90
8953;DHT22;4511;50.890;8.054;2023-03-23T04:05:56;9.90;99.90
8953;DHT22;4511;50.890;8.054;2023-03-23T04:08:24;9.90;99.90
8953;DHT22;4511;50.890;8.054;2023-03-23T04:10:53;9.80;99.90
8953;DHT22;4511;50.890;8.054;2023-03-23T04:13:21;9.90;99.90
8953;DHT22;4511;50.890;8.054;2023-03-23T04:15:48;9.80;99.90
8953;DHT22;4511;50.890;8.054;2023-03-23T04:18:15;9.90;99.90
8953;DHT22;4511;50.890;8.054;2023-03-23T04:20:43;9.90;99.90
8953;DHT22;4511;50.890;8.054;2023-03-23T04:23:12;9.80;99.90
8953;DHT22;4511;50.890;8.054;2023-03-23T04:25:39;9.90;99.90
8953;DHT22;4511;50.890;8.054;2023-03-23T04:28:08;9.90;99.90
8953;DHT22;4511;50.890;8.054;2023-03-23T04:30:36;9.80;99.90
8953;DHT22;4511;50.890;8.054;2023-03-23T04:33:03;9.90;99.90
8953;DHT22;4511;50.890;8.054;2023-03-23T04:35:31;9.90;99.90
8953;DHT22;4511;50.890;8.054;2023-03-23T04:37:59;9.90;99.90
8953;DHT22;4511;50.890;8.054;2023-03-23T04:40:26;9.80;99.90
8953;DHT22;4511;50.890;8.054;2023-03-23T04:42:53;9.90;99.90
8953;DHT22;4511;50.890;8.054;2023-03-23T04:45:25;9.80;99.90
8953;DHT22;4511;50.890;8.054;2023-03-23T04:47:52;9.90;99.90
8953;DHT22;4511;50.890;8.054;2023-03-23T04:50:24;9.90;99.90
8953;DHT22;4511;50.890;8.054;2023-03-23T04:52:52;9.90;99.90
8953;DHT22;4511;50.890;8.054;2023-03-23T04:55:22;9.90;99.90
8953;DHT22;4511;50.890;8.054;2023-03-23T04:57:49;9.90;99.90
8953;DHT22;4511;50.890;8.054;2023-03-23T05:00:16;9.90;99.90
8953;DHT22;4511;50.890;8.054;2023-03-23T05:02:45;9.90;99.90
8953;DHT22;4511;50.890;8.054;2023-03-23T05:05:17;9.90;99.90
8953;DHT22;4511;50.890;8.054;2023-03-23T05:07:44;9.90;99.90
8953;DHT22;4511;50.890;8.054;2023-03-23T05:10:13;9.90;99.90
8953;DHT22;4511;50.890;8.054;2023-03-23T05:12:41;9.90;99.90
8953;DHT22;4511;50.890;8.054;2023-03-23T05:15:09;9.90;99.90
8953;DHT22;4511;50.890;8.054;2023-03-23T05:17:36;9.90;99.90
8953;DHT22;4511;50.890;8.054;2023-03-23T05:20:06;10.00;99.90
8953;DHT22;4511;50.890;8.054;2023-03-23T05:22:34;9.90;99.90
8953;DHT22;4511;50.890;8.054;2023-03-23T05:25:02;9.90;99.90
8953;DHT22;4511;50.890;8.054;2023-03-23T05:27:30;9.90;99.90
8953;DHT22;4511;50.890;8.054;2023-03-23T05:29:58;10.00;99.90
8953;DHT22;4511;50.890;8.054;2023-03-23T05:32:27;9.90;99.90
8953;DHT22;4511;50.890;8.054;2023-03-23T05:34:56;10.00;99.90
8953;DHT22;4511;50.890;8.054;2023-03-23T05:37:26;10.00;99.90
8953;DHT22;4511;50.890;8.054;2023-03-23T05:39:54;9.90;99.90
8953;DHT22;4511;50.890;8.054;2023-03-23T05:42:21;10.00;99.90
8953;DHT22;4511;50.890;8.054;2023-03-23T05:44:48;9.90;99.90
8953;DHT22;4511;50.890;8.054;2023-03-23T05:47:15;10.00;99.90
8953;DHT22;4511;50.890;8.054;2023-03-23T05:49:41;9.90;99.90
8953;DHT22;4511;50.890;8.054;2023-03-23T05:52:08;10.00;99.90
8953;DHT22;4511;50.890;8.054;2023-03-23T05:54:37;10.00;99.90
8953;DHT22;4511;50.890;8.054;2023-03-23T05:57:04;10.00;99.90
8953;DHT22;4511;50.890;8.054;2023-03-23T05:59:31;10.00;99.90
8953;DHT22;4511;50.890;8.054;2023-03-23T06:01:59;10.00;99.90
8953;DHT22;4511;50.890;8.054;2023-03-23T06:04:26;10.10;99.90
8953;DHT22;4511;50.890;8.054;2023-03-23T06:06:53;10.10;99.90
8953;DHT22;4511;50.890;8.054;2023-03-23T06:09:20;10.10;99.90
8953;DHT22;4511;50.890;8.054;2023-03-23T06:11:48;10.20;99.90
8953;DHT22;4511;50.890;8.054;2023-03-23T06:14:15;10.20;99.90
8953;DHT22;4511;50.890;8.054;2023-03-23T06:16:42;10.20;99.90
8953;DHT22;4511;50.890;8.054;2023-03-23T06:19:09;10.20;99.90
8953;DHT22;4511;50.890;8.054;2023-03-23T06:21:36;10.20;99.90
8953;DHT22;4511;50.890;8.054;2023-03-23T06:24:04;10.20;99.90
8953;DHT22;4511;50.890;8.054;2023-03-23T06:26:33;10.20;99.90
8953;DHT22;4511;50.890;8.054;2023-03-23T06:29:02;10.20;99.90
8953;DHT22;4511;50.890;8.054;2023-03-23T06:31:36;10.30;99.90
8953;DHT22;4511;50.890;8.054;2023-03-23T06:34:04;10.30;99.90
8953;DHT22;4511;50.890;8.054;2023-03-23T06:36:31;10.30;99.90
8953;DHT22;4511;50.890;8.054;2023-03-23T06:38:57;10.30;99.90
8953;DHT22;4511;50.890;8.054;2023-03-23T06:41:24;10.30;99.90
8953;DHT22;4511;50.890;8.054;2023-03-23T06:43:51;10.40;99.90
8953;DHT22;4511;50.890;8.054;2023-03-23T06:46:19;10.30;99.90
8953;DHT22;4511;50.890;8.054;2023-03-23T06:48:46;10.40;99.90
8953;DHT22;4511;50.890;8.054;2023-03-23T06:51:15;10.40;99.90
8953;DHT22;4511;50.890;8.054;2023-03-23T06:53:42;10.40;99.90
8953;DHT22;4511;50.890;8.054;2023-03-23T06:56:09;10.40;99.90
8953;DHT22;4511;50.890;8.054;2023-03-23T06:58:37;10.40;99.90
8953;DHT22;4511;50.890;8.054;2023-03-23T07:01:04;10.50;99.90
8953;DHT22;4511;50.890;8.054;2023-03-23T07:03:33;10.50;99.90
8953;DHT22;4511;50.890;8.054;2023-03-23T07:06:00;10.50;99.90
8953;DHT22;4511;50.890;8.054;2023-03-23T07:08:27;10.50;99.90
8953;DHT22;4511;50.890;8.054;2023-03-23T07:10:55;10.60;99.90
8953;DHT22;4511;50.890;8.054;2023-03-23T07:13:23;10.60;99.90
8953;DHT22;4511;50.890;8.054;2023-03-23T07:15:50;10.70;99.90
8953;DHT22;4511;50.890;8.054;2023-03-23T07:18:17;10.70;99.90
8953;DHT22;4511;50.890;8.054;2023-03-23T07:20:48;10.70;99.90
8953;DHT22;4511;50.890;8.054;2023-03-23T07:23:16;10.70;99.90
8953;DHT22;4511;50.890;8.054;2023-03-23T07:25:43;10.70;99.90
8953;DHT22;4511;50.890;8.054;2023-03-23T07:28:11;10.70;99.90
8953;DHT22;4511;50.890;8.054;2023-03-23T07:30:38;10.70;99.90
8953;DHT22;4511;50.890;8.054;2023-03-23T07:33:06;10.70;99.90
8953;DHT22;4511;50.890;8.054;2023-03-23T07:35:33;10.70;99.90
8953;DHT22;4511;50.890;8.054;2023-03-23T07:38:03;10.70;99.90
8953;DHT22;4511;50.890;8.054;2023-03-23T07:40:30;10.80;99.90
8953;DHT22;4511;50.890;8.054;2023-03-23T07:42:59;10.80;99.90
8953;DHT22;4511;50.890;8.054;2023-03-23T07:45:26;10.80;99.90
8953;DHT22;4511;50.890;8.054;2023-03-23T07:47:53;10.80;99.90
8953;DHT22;4511;50.890;8.054;2023-03-23T07:50:21;10.90;99.90
8953;DHT22;4511;50.890;8.054;2023-03-23T07:52:49;10.90;99.90
8953;DHT22;4511;50.890;8.054;2023-03-23T07:55:18;10.90;99.90
8953;DHT22;4511;50.890;8.054;2023-03-23T07:57:45;10.90;99.90
8953;DHT22;4511;50.890;8.054;2023-03-23T08:00:13;11.00;99.90
8953;DHT22;4511;50.890;8.054;2023-03-23T08:02:44;11.00;99.90
8953;DHT22;4511;50.890;8.054;2023-03-23T08:05:12;11.10;99.90
8953;DHT22;4511;50.890;8.054;2023-03-23T08:07:39;11.10;99.90
8953;DHT22;4511;50.890;8.054;2023-03-23T08:10:09;11.10;99.90
8953;DHT22;4511;50.890;8.054;2023-03-23T08:12:39;11.10;99.90
8953;DHT22;4511;50.890;8.054;2023-03-23T08:15:08;11.20;99.90
8953;DHT22;4511;50.890;8.054;2023-03-23T08:17:38;11.20;99.90
8953;DHT22;4511;50.890;8.054;2023-03-23T08:20:07;11.20;99.90
8953;DHT22;4511;50.890;8.054;2023-03-23T08:22:38;11.10;99.90
8953;DHT22;4511;50.890;8.054;2023-03-23T08:25:07;11.10;99.90
8953;DHT22;4511;50.890;8.054;2023-03-23T08:27:37;11.10;99.90
8953;DHT22;4511;50.890;8.054;2023-03-23T08:30:10;11.10;99.90
8953;DHT22;4511;50.890;8.054;2023-03-23T08:32:38;11.20;99.90
8953;DHT22;4511;50.890;8.054;2023-03-23T08:35:06;11.30;99.90
8953;DHT22;4511;50.890;8.054;2023-03-23T08:37:34;11.30;99.90
8953;DHT22;4511;50.890;8.054;2023-03-23T08:40:02;11.30;99.90
8953;DHT22;4511;50.890;8.054;2023-03-23T08:42:33;11.30;99.90
8953;DHT22;4511;50.890;8.054;2023-03-23T08:45:02;11.40;99.90
8953;DHT22;4511;50.890;8.054;2023-03-23T08:47:29;11.40;99.90
8953;DHT22;4511;50.890;8.054;2023-03-23T08:49:56;11.40;99.90
8953;DHT22;4511;50.890;8.054;2023-03-23T08:52:23;11.40;99.90
8953;DHT22;4511;50.890;8.054;2023-03-23T08:54:50;11.40;99.90
8953;DHT22;4511;50.890;8.054;2023-03-23T08:57:17;11.40;99.90
8953;DHT22;4511;50.890;8.054;2023-03-23T08:59:44;11.40;99.90
8953;DHT22;4511;50.890;8.054;2023-03-23T09:02:12;11.50;99.90
8953;DHT22;4511;50.890;8.054;2023-03-23T09:04:39;11.50;99.90
8953;DHT22;4511;50.890;8.054;2023-03-23T09:07:08;11.50;99.90
8953;DHT22;4511;50.890;8.054;2023-03-23T09:09:35;11.50;99.90
8953;DHT22;4511;50.890;8.054;2023-03-23T09:12:02;11.50;99.90
8953;DHT22;4511;50.890;8.054;2023-03-23T09:14:29;11.50;99.90
8953;DHT22;4511;50.890;8.054;2023-03-23T09:16:56;11.50;99.90
8953;DHT22;4511;50.890;8.054;2023-03-23T09:19:24;11.50;99.90
8953;DHT22;4511;50.890;8.054;2023-03-23T09:21:51;11.50;99.90
8953;DHT22;4511;50.890;8.054;2023-03-23T09:24:18;11.60;99.90
8953;DHT22;4511;50.890;8.054;2023-03-23T09:26:44;11.60;99.90
8953;DHT22;4511;50.890;8.054;2023-03-23T09:29:12;11.60;99.90
8953;DHT22;4511;50.890;8.054;2023-03-23T09:31:39;11.60;99.90
8953;DHT22;4511;50.890;8.054;2023-03-23T09:34:07;11.70;99.90
8953;DHT22;4511;50.890;8.054;2023-03-23T09:36:36;11.70;99.90
8953;DHT22;4511;50.890;8.054;2023-03-23T09:39:04;11.70;99.90
8953;DHT22;4511;50.890;8.054;2023-03-23T09:41:50;11.70;99.90
8953;DHT22;4511;50.890;8.054;2023-03-23T09:44:30;11.60;99.90
8953;DHT22;4511;50.890;8.054;2023-03-23T09:47:02;11.70;99.90
8953;DHT22;4511;50.890;8.054;2023-03-23T09:49:33;11.60;99.90
8953;DHT22;4511;50.890;8.054;2023-03-23T09:52:07;11.60;99.90
8953;DHT22;4511;50.890;8.054;2023-03-23T09:54:37;11.70;99.90
8953;DHT22;4511;50.890;8.054;2023-03-23T09:57:12;11.70;99.90
8953;DHT22;4511;50.890;8.054;2023-03-23T09:59:47;11.70;99.90
8953;DHT22;4511;50.890;8.054;2023-03-23T10:02:17;11.70;99.90
8953;DHT22;4511;50.890;8.054;2023-03-23T10:04:46;11.70;99.90
8953;DHT22;4511;50.890;8.054;2023-03-23T10:07:17;11.70;99.90
8953;DHT22;4511;50.890;8.054;2023-03-23T10:09:45;11.70;99.90
8953;DHT22;4511;50.890;8.054;2023-03-23T10:12:21;11.70;99.90
8953;DHT22;4511;50.890;8.054;2023-03-23T10:15:11;11.80;99.90
8953;DHT22;4511;50.890;8.054;2023-03-23T10:17:45;11.80;99.90
8953;DHT22;4511;50.890;8.054;2023-03-23T10:20:23;11.80;99.90
8953;DHT22;4511;50.890;8.054;2023-03-23T10:23:02;11.80;99.90
8953;DHT22;4511;50.890;8.054;2023-03-23T10:25:34;11.80;99.90
8953;DHT22;4511;50.890;8.054;2023-03-23T10:28:05;11.70;99.90
8953;DHT22;4511;50.890;8.054;2023-03-23T10:30:36;11.70;99.90
8953;DHT22;4511;50.890;8.054;2023-03-23T10:33:11;11.60;99.90
8953;DHT22;4511;50.890;8.054;2023-03-23T10:35:43;11.70;99.90
8953;DHT22;4511;50.890;8.054;2023-03-23T10:38:16;11.60;99.90
8953;DHT22;4511;50.890;8.054;2023-03-23T10:40:49;11.50;99.90
8953;DHT22;4511;50.890;8.054;2023-03-23T10:43:17;11.50;99.90
8953;DHT22;4511;50.890;8.054;2023-03-23T10:45:45;11.60;99.90
8953;DHT22;4511;50.890;8.054;2023-03-23T10:48:17;11.60;99.90
8953;DHT22;4511;50.890;8.054;2023-03-23T10:50:48;11.50;99.90
8953;DHT22;4511;50.890;8.054;2023-03-23T10:53:20;11.60;99.90
8953;DHT22;4511;50.890;8.054;2023-03-23T10:55:47;11.50;99.90
8953;DHT22;4511;50.890;8.054;2023-03-23T10:58:23;11.60;99.90
8953;DHT22;4511;50.890;8.054;2023-03-23T11:00:50;11.50;99.90
8953;DHT22;4511;50.890;8.054;2023-03-23T11:03:25;11.60;99.90
8953;DHT22;4511;50.890;8.054;2023-03-23T11:05:57;11.60;99.90
8953;DHT22;4511;50.890;8.054;2023-03-23T11:08:27;11.50;99.90
8953;DHT22;4511;50.890;8.054;2023-03-23T11:10:56;11.60;99.90
8953;DHT22;4511;50.890;8.054;2023-03-23T11:13:29;11.60;99.90
8953;DHT22;4511;50.890;8.054;2023-03-23T11:15:56;11.70;99.90
8953;DHT22;4511;50.890;8.054;2023-03-23T11:18:25;11.70;99.90
8953;DHT22;4511;50.890;8.054;2023-03-23T11:20:55;11.80;99.90
8953;DHT22;4511;50.890;8.054;2023-03-23T11:23:25;11.70;99.90
8953;DHT22;4511;50.890;8.054;2023-03-23T11:26:00;11.70;99.90
8953;DHT22;4511;50.890;8.054;2023-03-23T11:28:31;11.70;99.90
8953;DHT22;4511;50.890;8.054;2023-03-23T11:31:00;11.50;99.90
8953;DHT22;4511;50.890;8.054;2023-03-23T11:33:35;11.50;99.90
8953;DHT22;4511;50.890;8.054;2023-03-23T11:36:04;11.50;99.90
8953;DHT22;4511;50.890;8.054;2023-03-23T11:38:34;11.40;99.90
8953;DHT22;4511;50.890;8.054;2023-03-23T11:41:01;11.50;99.90
8953;DHT22;4511;50.890;8.054;2023-03-23T11:43:39;11.60;99.90
8953;DHT22;4511;50.890;8.054;2023-03-23T11:46:13;11.70;99.90
8953;DHT22;4511;50.890;8.054;2023-03-23T11:48:45;11.80;99.90
8953;DHT22;4511;50.890;8.054;2023-03-23T11:51:19;11.80;99.90
8953;DHT22;4511;50.890;8.054;2023-03-23T11:53:53;11.80;99.90
8953;DHT22;4511;50.890;8.054;2023-03-23T11:56:24;11.80;99.90
8953;DHT22;4511;50.890;8.054;2023-03-23T11:58:53;11.90;99.90
8953;DHT22;4511;50.890;8.054;2023-03-23T12:01:35;11.90;99.90
8953;DHT22;4511;50.890;8.054;2023-03-23T12:04:28;12.00;99.90
8953;DHT22;4511;50.890;8.054;2023-03-23T12:07:08;12.40;99.90
8953;DHT22;4511;50.890;8.054;2023-03-23T12:09:45;12.80;99.90
8953;DHT22;4511;50.890;8.054;2023-03-23T12:12:19;13.20;99.90
8953;DHT22;4511;50.890;8.054;2023-03-23T12:14:56;13.10;99.90
8953;DHT22;4511;50.890;8.054;2023-03-23T12:17:34;13.00;99.90
8953;DHT22;4511;50.890;8.054;2023-03-23T12:20:17;12.90;99.90
8953;DHT22;4511;50.890;8.054;2023-03-23T12:23:03;12.80;99.90
8953;DHT22;4511;50.890;8.054;2023-03-23T12:25:55;13.20;99.90
8953;DHT22;4511;50.890;8.054;2023-03-23T12:28:32;13.40;99.90
8953;DHT22;4511;50.890;8.054;2023-03-23T12:31:04;13.40;99.90
8953;DHT22;4511;50.890;8.054;2023-03-23T12:33:42;13.20;99.90
8953;DHT22;4511;50.890;8.054;2023-03-23T12:36:22;13.10;99.90
8953;DHT22;4511;50.890;8.054;2023-03-23T12:42:06;13.10;99.90
8953;DHT22;4511;50.890;8.054;2023-03-23T12:44:43;13.30;99.90
8953;DHT22;4511;50.890;8.054;2023-03-23T12:47:21;13.90;99.90
8953;DHT22;4511;50.890;8.054;2023-03-23T12:49:54;14.20;99.90
8953;DHT22;4511;50.890;8.054;2023-03-23T12:52:26;14.10;99.90
8953;DHT22;4511;50.890;8.054;2023-03-23T12:54:59;13.90;99.90
8953;DHT22;4511;50.890;8.054;2023-03-23T12:57:33;13.60;99.90
8953;DHT22;4511;50.890;8.054;2023-03-23T13:00:06;13.40;99.90
8953;DHT22;4511;50.890;8.054;2023-03-23T13:02:41;13.30;99.90
8953;DHT22;4511;50.890;8.054;2023-03-23T13:05:11;13.40;99.90
8953;DHT22;4511;50.890;8.054;2023-03-23T13:07:45;13.40;99.90
8953;DHT22;4511;50.890;8.054;2023-03-23T13:10:20;13.40;99.90
8953;DHT22;4511;50.890;8.054;2023-03-23T13:12:50;13.60;99.90
8953;DHT22;4511;50.890;8.054;2023-03-23T13:15:28;13.90;99.90
8953;DHT22;4511;50.890;8.054;2023-03-23T13:18:04;13.80;99.90
8953;DHT22;4511;50.890;8.054;2023-03-23T13:20:51;13.70;99.90
8953;DHT22;4511;50.890;8.054;2023-03-23T13:23:22;13.80;99.90
8953;DHT22;4511;50.890;8.054;2023-03-23T13:25:52;14.00;99.90
8953;DHT22;4511;50.890;8.054;2023-03-23T13:28:24;14.10;99.90
8953;DHT22;4511;50.890;8.054;2023-03-23T13:30:59;13.90;99.90
8953;DHT22;4511;50.890;8.054;2023-03-23T13:33:30;13.90;99.90
8953;DHT22;4511;50.890;8.054;2023-03-23T13:36:02;13.80;99.90
8953;DHT22;4511;50.890;8.054;2023-03-23T13:38:32;13.80;99.90
8953;DHT22;4511;50.890;8.054;2023-03-23T13:41:09;13.70;99.90
8953;DHT22;4511;50.890;8.054;2023-03-23T13:43:40;13.70;99.90
8953;DHT22;4511;50.890;8.054;2023-03-23T13:46:24;13.70;99.90
8953;DHT22;4511;50.890;8.054;2023-03-23T13:49:04;13.70;99.90
8953;DHT22;4511;50.890;8.054;2023-03-23T13:51:35;13.60;99.90
8953;DHT22;4511;50.890;8.054;2023-03-23T13:54:14;13.70;99.90
8953;DHT22;4511;50.890;8.054;2023-03-23T13:56:43;13.70;99.90
8953;DHT22;4511;50.890;8.054;2023-03-23T13:59:16;13.80;99.90
8953;DHT22;4511;50.890;8.054;2023-03-23T14:01:44;13.90;99.90
8953;DHT22;4511;50.890;8.054;2023-03-23T14:04:14;13.80;99.90
8953;DHT22;4511;50.890;8.054;2023-03-23T14:06:42;13.60;99.90
8953;DHT22;4511;50.890;8.054;2023-03-23T14:09:14;13.50;99.90
8953;DHT22;4511;50.890;8.054;2023-03-23T14:11:54;13.20;99.90
8953;DHT22;4511;50.890;8.054;2023-03-23T14:14:27;13.30;99.90
8953;DHT22;4511;50.890;8.054;2023-03-23T14:17:06;13.30;99.90
8953;DHT22;4511;50.890;8.054;2023-03-23T14:19:33;13.30;99.90
8953;DHT22;4511;50.890;8.054;2023-03-23T14:22:03;13.30;99.90
8953;DHT22;4511;50.890;8.054;2023-03-23T14:24:32;13.30;99.90
8953;DHT22;4511;50.890;8.054;2023-03-23T14:27:11;13.30;99.90
8953;DHT22;4511;50.890;8.054;2023-03-23T14:29:41;13.40;99.90
8953;DHT22;4511;50.890;8.054;2023-03-23T14:32:20;13.50;99.90
8953;DHT22;4511;50.890;8.054;2023-03-23T14:34:51;13.60;99.90
8953;DHT22;4511;50.890;8.054;2023-03-23T14:37:18;13.60;99.90
8953;DHT22;4511;50.890;8.054;2023-03-23T14:39:48;13.70;99.90
8953;DHT22;4511;50.890;8.054;2023-03-23T14:42:18;13.70;99.90
8953;DHT22;4511;50.890;8.054;2023-03-23T14:44:48;13.70;99.90
8953;DHT22;4511;50.890;8.054;2023-03-23T14:47:19;13.60;99.90
8953;DHT22;4511;50.890;8.054;2023-03-23T14:49:46;13.50;99.90
8953;DHT22;4511;50.890;8.054;2023-03-23T14:52:15;13.50;99.90
8953;DHT22;4511;50.890;8.054;2023-03-23T14:54:43;13.50;99.90
8953;DHT22;4511;50.890;8.054;2023-03-23T14:57:12;13.50;99.90
8953;DHT22;4511;50.890;8.054;2023-03-23T14:59:41;13.40;99.90
8953;DHT22;4511;50.890;8.054;2023-03-23T15:02:14;13.50;99.90
8953;DHT22;4511;50.890;8.054;2023-03-23T15:04:45;13.60;99.90
8953;DHT22;4511;50.890;8.054;2023-03-23T15:07:14;13.70;99.90
8953;DHT22;4511;50.890;8.054;2023-03-23T15:09:44;13.80;99.90
8953;DHT22;4511;50.890;8.054;2023-03-23T15:12:20;14.00;99.90
8953;DHT22;4511;50.890;8.054;2023-03-23T15:14:48;14.00;99.90
8953;DHT22;4511;50.890;8.054;2023-03-23T15:17:21;14.00;99.90
8953;DHT22;4511;50.890;8.054;2023-03-23T15:19:50;14.10;99.90
8953;DHT22;4511;50.890;8.054;2023-03-23T15:22:21;14.00;99.90
8953;DHT22;4511;50.890;8.054;2023-03-23T15:24:48;13.90;99.90
8953;DHT22;4511;50.890;8.054;2023-03-23T15:27:16;13.90;99.90
8953;DHT22;4511;50.890;8.054;2023-03-23T15:29:51;13.70;99.90
8953;DHT22;4511;50.890;8.054;2023-03-23T15:32:25;13.60;99.90
8953;DHT22;4511;50.890;8.054;2023-03-23T15:34:53;13.60;99.90
8953;DHT22;4511;50.890;8.054;2023-03-23T15:37:24;13.50;99.90
8953;DHT22;4511;50.890;8.054;2023-03-23T15:39:51;13.50;99.90
8953;DHT22;4511;50.890;8.054;2023-03-23T15:42:24;13.50;99.90
8953;DHT22;4511;50.890;8.054;2023-03-23T15:45:02;13.50;99.90
8953;DHT22;4511;50.890;8.054;2023-03-23T15:47:44;13.40;99.90
8953;DHT22;4511;50.890;8.054;2023-03-23T15:50:13;13.40;99.90
8953;DHT22;4511;50.890;8.054;2023-03-23T15:52:41;13.30;99.90
8953;DHT22;4511;50.890;8.054;2023-03-23T15:55:21;13.30;99.90
8953;DHT22;4511;50.890;8.054;2023-03-23T15:57:48;13.40;99.90
8953;DHT22;4511;50.890;8.054;2023-03-23T16:00:16;13.40;99.90
8953;DHT22;4511;50.890;8.054;2023-03-23T16:02:46;13.60;99.90
8953;DHT22;4511;50.890;8.054;2023-03-23T16:05:14;13.70;99.90
8953;DHT22;4511;50.890;8.054;2023-03-23T16:07:41;13.70;99.90
8953;DHT22;4511;50.890;8.054;2023-03-23T16:10:15;13.70;99.90
8953;DHT22;4511;50.890;8.054;2023-03-23T16:12:43;13.60;99.90
8953;DHT22;4511;50.890;8.054;2023-03-23T16:15:10;13.60;99.90
8953;DHT22;4511;50.890;8.054;2023-03-23T16:17:37;13.40;99.90
8953;DHT22;4511;50.890;8.054;2023-03-23T16:20:11;13.40;99.90
8953;DHT22;4511;50.890;8.054;2023-03-23T16:22:39;13.30;99.90
8953;DHT22;4511;50.890;8.054;2023-03-23T16:25:07;13.30;99.90
8953;DHT22;4511;50.890;8.054;2023-03-23T16:27:34;13.40;99.90
8953;DHT22;4511;50.890;8.054;2023-03-23T16:30:07;13.90;99.90